sensor_id;sensor_type;location;lat;lon;timestamp;P1;durP1;ratioP1;P2;durP2;ratioP2
61483;SDS011;47349;55.640;37.692;2023-09-12T13:20:13;10.82;;;8.52;;
61483;SDS011;47349;55.640;37.692;2023-09-12T13:22:51;9.15;;;6.25;;
61483;SDS011;47349;55.640;37.692;2023-09-12T13:26:00;8.95;;;5.95;;
61483;SDS011;47349;55.640;37.692;2023-09-12T13:28:50;9.20;;;6.20;;
61483;SDS011;47349;55.640;37.692;2023-09-12T13:58:59;10.63;;;6.72;;
61483;SDS011;47349;55.640;37.692;2023-09-12T14:17:51;9.13;;;5.25;;
61483;SDS011;47349;55.640;37.692;2023-09-12T14:20:37;7.07;;;5.47;;
61483;SDS011;47349;55.640;37.692;2023-09-12T14:23:24;11.00;;;6.00;;
61483;SDS011;47349;55.640;37.692;2023-09-12T14:26:17;13.93;;;5.22;;
61483;SDS011;47349;55.640;37.692;2023-09-12T14:29:05;7.13;;;5.10;;
61483;SDS011;47349;55.640;37.692;2023-09-12T14:32:02;7.82;;;4.82;;
61483;SDS011;47349;55.640;37.692;2023-09-12T14:34:50;8.75;;;5.05;;
61483;SDS011;47349;55.640;37.692;2023-09-12T14:37:49;16.35;;;5.38;;
61483;SDS011;47349;55.640;37.692;2023-09-12T14:40:43;8.98;;;5.30;;
61483;SDS011;47349;55.640;37.692;2023-09-12T14:44:22;8.18;;;5.18;;
61483;SDS011;47349;55.640;37.692;2023-09-12T14:47:06;6.97;;;5.15;;
61483;SDS011;47349;55.640;37.692;2023-09-12T14:49:56;15.35;;;6.07;;
61483;SDS011;47349;55.640;37.692;2023-09-12T14:53:21;9.30;;;5.43;;
61483;SDS011;47349;55.640;37.692;2023-09-12T14:56:13;8.15;;;5.07;;
61483;SDS011;47349;55.640;37.692;2023-09-12T14:59:58;8.88;;;5.45;;
61483;SDS011;47349;55.640;37.692;2023-09-12T15:13:11;7.20;;;5.95;;
61483;SDS011;47349;55.640;37.692;2023-09-12T15:22:22;15.65;;;9.65;;
61483;SDS011;47349;55.640;37.692;2023-09-12T16:24:47;13.80;;;8.02;;
61483;SDS011;47349;55.640;37.692;2023-09-12T16:27:37;18.65;;;9.27;;
61483;SDS011;47349;55.640;37.692;2023-09-12T16:30:05;13.95;;;8.77;;
61483;SDS011;47349;55.640;37.692;2023-09-12T16:33:04;22.80;;;10.30;;
61483;SDS011;47349;55.640;37.692;2023-09-12T16:35:51;17.00;;;8.10;;
61483;SDS011;47349;55.640;37.692;2023-09-12T16:38:22;11.80;;;7.60;;
61483;SDS011;47349;55.640;37.692;2023-09-12T16:40:57;16.15;;;7.53;;
61483;SDS011;47349;55.640;37.692;2023-09-12T16:43:50;13.05;;;7.78;;
61483;SDS011;47349;55.640;37.692;2023-09-12T16:46:34;10.32;;;7.82;;
61483;SDS011;47349;55.640;37.692;2023-09-12T16:49:29;13.02;;;8.90;;
61483;SDS011;47349;55.640;37.692;2023-09-12T16:52:10;15.00;;;7.82;;
61483;SDS011;47349;55.640;37.692;2023-09-12T16:54:54;16.48;;;9.68;;
61483;SDS011;47349;55.640;37.692;2023-09-12T16:57:24;22.17;;;13.48;;
61483;SDS011;47349;55.640;37.692;2023-09-12T17:00:03;13.15;;;8.30;;
61483;SDS011;47349;55.640;37.692;2023-09-12T17:02:44;14.30;;;10.73;;
61483;SDS011;47349;55.640;37.692;2023-09-12T17:05:29;20.77;;;9.00;;
61483;SDS011;47349;55.640;37.692;2023-09-12T17:08:19;11.23;;;7.70;;
61483;SDS011;47349;55.640;37.692;2023-09-12T17:11:06;15.30;;;8.65;;
61483;SDS011;47349;55.640;37.692;2023-09-12T17:14:10;14.63;;;8.88;;
61483;SDS011;47349;55.640;37.692;2023-09-12T17:21:24;13.88;;;7.95;;
61483;SDS011;47349;55.640;37.692;2023-09-12T17:24:07;13.98;;;8.43;;
61483;SDS011;47349;55.640;37.692;2023-09-12T17:26:43;14.30;;;9.73;;
61483;SDS011;47349;55.640;37.692;2023-09-12T17:29:16;17.33;;;8.00;;
61483;SDS011;47349;55.640;37.692;2023-09-12T17:32:15;17.88;;;8.43;;
61483;SDS011;47349;55.640;37.692;2023-09-12T17:34:58;12.68;;;8.52;;
61483;SDS011;47349;55.640;37.692;2023-09-12T17:37:34;19.00;;;9.45;;
61483;SDS011;47349;55.640;37.692;2023-09-12T17:40:06;15.27;;;9.02;;
61483;SDS011;47349;55.640;37.692;2023-09-12T17:42:35;17.92;;;9.07;;
61483;SDS011;47349;55.640;37.692;2023-09-12T17:45:11;16.13;;;7.70;;
61483;SDS011;47349;55.640;37.692;2023-09-12T17:48:00;12.80;;;8.68;;
61483;SDS011;47349;55.640;37.692;2023-09-12T17:50:30;14.48;;;8.27;;
61483;SDS011;47349;55.640;37.692;2023-09-12T17:53:13;13.35;;;8.50;;
61483;SDS011;47349;55.640;37.692;2023-09-12T17:55:43;16.58;;;9.52;;
61483;SDS011;47349;55.640;37.692;2023-09-12T17:58:14;14.50;;;9.95;;
61483;SDS011;47349;55.640;37.692;2023-09-12T18:00:58;18.83;;;9.63;;
61483;SDS011;47349;55.640;37.692;2023-09-12T18:03:42;23.23;;;10.13;;
61483;SDS011;47349;55.640;37.692;2023-09-12T18:06:18;17.13;;;9.32;;
61483;SDS011;47349;55.640;37.692;2023-09-12T18:08:46;18.23;;;9.82;;
61483;SDS011;47349;55.640;37.692;2023-09-12T18:11:19;13.70;;;9.30;;
61483;SDS011;47349;55.640;37.692;2023-09-12T18:13:49;14.93;;;9.40;;
61483;SDS011;47349;55.640;37.692;2023-09-12T18:16:23;19.02;;;9.68;;
61483;SDS011;47349;55.640;37.692;2023-09-12T18:19:18;20.70;;;10.18;;
61483;SDS011;47349;55.640;37.692;2023-09-12T18:21:47;24.60;;;10.88;;
61483;SDS011;47349;55.640;37.692;2023-09-12T18:24:17;25.17;;;11.20;;
61483;SDS011;47349;55.640;37.692;2023-09-12T18:26:45;21.33;;;11.55;;
61483;SDS011;47349;55.640;37.692;2023-09-12T18:29:23;18.17;;;11.23;;
61483;SDS011;47349;55.640;37.692;2023-09-12T18:31:50;18.80;;;10.57;;
61483;SDS011;47349;55.640;37.692;2023-09-12T18:34:20;16.80;;;11.13;;
61483;SDS011;47349;55.640;37.692;2023-09-12T18:36:54;19.33;;;11.93;;
61483;SDS011;47349;55.640;37.692;2023-09-12T18:39:22;22.50;;;9.88;;
61483;SDS011;47349;55.640;37.692;2023-09-12T18:41:57;20.67;;;11.02;;
61483;SDS011;47349;55.640;37.692;2023-09-12T18:44:25;26.38;;;11.38;;
61483;SDS011;47349;55.640;37.692;2023-09-12T18:46:53;27.35;;;10.82;;
61483;SDS011;47349;55.640;37.692;2023-09-12T18:49:23;27.55;;;13.52;;
61483;SDS011;47349;55.640;37.692;2023-09-12T18:51:52;30.00;;;13.55;;
61483;SDS011;47349;55.640;37.692;2023-09-12T18:54:22;24.02;;;11.57;;
61483;SDS011;47349;55.640;37.692;2023-09-12T18:56:50;29.90;;;11.52;;
61483;SDS011;47349;55.640;37.692;2023-09-12T18:59:18;32.38;;;10.85;;
61483;SDS011;47349;55.640;37.692;2023-09-12T19:01:45;24.08;;;10.95;;
61483;SDS011;47349;55.640;37.692;2023-09-12T19:04:47;27.08;;;11.35;;
61483;SDS011;47349;55.640;37.692;2023-09-12T19:07:14;25.88;;;11.20;;
61483;SDS011;47349;55.640;37.692;2023-09-12T19:09:55;26.23;;;11.80;;
61483;SDS011;47349;55.640;37.692;2023-09-12T19:12:25;25.02;;;11.30;;
61483;SDS011;47349;55.640;37.692;2023-09-12T19:14:53;30.05;;;11.73;;
61483;SDS011;47349;55.640;37.692;2023-09-12T19:17:39;27.45;;;10.75;;
61483;SDS011;47349;55.640;37.692;2023-09-12T20:02:48;21.55;;;11.52;;
61483;SDS011;47349;55.640;37.692;2023-09-12T20:55:10;19.83;;;10.40;;
61483;SDS011;47349;55.640;37.692;2023-09-12T23:25:54;24.33;;;13.73;;
